createdAt,value
2022-11-15T00:02:42.798Z,3.40
2022-11-15T00:05:30.265Z,2.83
2022-11-15T00:08:17.682Z,2.88
2022-11-15T00:11:05.508Z,4.20
2022-11-15T00:13:52.694Z,4.57
2022-11-15T00:16:40.334Z,2.80
2022-11-15T00:19:27.465Z,2.90
2022-11-15T00:22:14.721Z,2.90
2022-11-15T00:25:01.975Z,3.75
2022-11-15T00:27:51.996Z,5.97
2022-11-15T00:30:39.409Z,28.77
2022-11-15T00:33:26.206Z,15.25
2022-11-15T00:36:13.477Z,4.60
2022-11-15T00:39:00.285Z,6.10
2022-11-15T00:41:47.291Z,4.00
2022-11-15T00:44:34.523Z,4.35
2022-11-15T00:47:24.200Z,4.25
2022-11-15T00:50:15.010Z,3.33
2022-11-15T00:53:02.636Z,4.63
2022-11-15T00:55:49.826Z,3.42
2022-11-15T00:58:37.386Z,3.60
2022-11-15T01:01:24.711Z,10.63
2022-11-15T01:04:11.875Z,4.95
2022-11-15T01:06:58.885Z,4.47
2022-11-15T01:09:46.256Z,4.20
2022-11-15T01:12:33.855Z,3.78
2022-11-15T01:15:21.190Z,3.80
2022-11-15T01:18:08.222Z,3.10
2022-11-15T01:20:55.454Z,3.83
2022-11-15T01:23:42.601Z,6.97
2022-11-15T01:26:29.985Z,4.30
2022-11-15T01:29:17.471Z,14.20
2022-11-15T01:32:04.517Z,11.43
2022-11-15T01:34:51.895Z,11.63
2022-11-15T01:37:39.119Z,3.60
2022-11-15T01:40:26.419Z,6.13
2022-11-15T01:43:45.515Z,7.40
2022-11-15T01:46:37.763Z,5.00
2022-11-15T01:49:28.511Z,5.30
2022-11-15T01:52:19.665Z,4.90
2022-11-15T01:55:15.657Z,3.60
2022-11-15T01:58:06.487Z,4.10
2022-11-15T02:00:54.198Z,4.03
2022-11-15T02:03:59.216Z,3.90
2022-11-15T02:06:48.307Z,3.88
2022-11-15T02:09:35.208Z,5.05
2022-11-15T02:12:23.777Z,6.32
2022-11-15T02:15:12.502Z,5.25
2022-11-15T02:18:09.658Z,4.10
2022-11-15T02:21:40.938Z,3.85
2022-11-15T02:24:45.545Z,4.78
2022-11-15T02:28:09.388Z,6.45
2022-11-15T02:31:00.332Z,5.43
2022-11-15T02:34:28.721Z,3.80
2022-11-15T02:37:20.155Z,3.78
2022-11-15T02:40:25.594Z,4.35
2022-11-15T02:43:35.635Z,4.35
2022-11-15T02:47:05.016Z,6.90
2022-11-15T02:49:59.097Z,3.92
2022-11-15T02:52:49.746Z,4.15
2022-11-15T02:55:43.752Z,3.97
2022-11-15T02:58:42.168Z,5.15
2022-11-15T03:02:04.460Z,5.65
2022-11-15T03:05:20.716Z,4.97
2022-11-15T03:11:11.464Z,4.72
2022-11-15T03:14:12.547Z,4.07
2022-11-15T03:17:02.114Z,5.68
2022-11-15T03:19:54.837Z,4.78
2022-11-15T03:22:46.552Z,4.20
2022-11-15T03:25:36.427Z,4.63
2022-11-15T03:28:30.243Z,2.88
2022-11-15T03:31:39.138Z,5.95
2022-11-15T03:34:28.749Z,7.63
2022-11-15T03:37:18.408Z,3.33
2022-11-15T03:40:06.390Z,3.20
2022-11-15T03:43:12.366Z,3.70
2022-11-15T03:46:08.938Z,4.22
2022-11-15T03:49:10.076Z,4.32
2022-11-15T03:52:00.674Z,4.63
2022-11-15T03:54:57.624Z,3.97
2022-11-15T03:57:45.702Z,3.40
2022-11-15T04:00:32.536Z,3.42
2022-11-15T04:03:19.518Z,3.83
2022-11-15T04:06:07.017Z,3.50
2022-11-15T04:08:53.897Z,3.70
2022-11-15T04:11:40.515Z,3.90
2022-11-15T04:14:27.655Z,3.90
2022-11-15T04:17:14.584Z,4.07
2022-11-15T04:20:19.900Z,3.40
2022-11-15T04:23:29.579Z,3.95
2022-11-15T04:26:22.942Z,3.47
2022-11-15T04:29:28.538Z,2.97
2022-11-15T04:32:15.650Z,5.15
2022-11-15T04:35:02.344Z,3.60
2022-11-15T04:37:49.683Z,4.63
2022-11-15T04:40:38.453Z,4.03
2022-11-15T04:43:28.094Z,3.40
2022-11-15T04:46:15.195Z,3.75
2022-11-15T04:49:02.691Z,4.00
2022-11-15T04:51:49.853Z,3.22
2022-11-15T04:54:36.730Z,3.10
2022-11-15T04:57:23.847Z,3.88
2022-11-15T05:00:18.700Z,2.90
2022-11-15T05:03:23.778Z,2.60
2022-11-15T05:06:10.647Z,2.53
2022-11-15T05:08:57.781Z,2.60
2022-11-15T05:11:48.632Z,2.60
2022-11-15T05:14:35.607Z,2.10
2022-11-15T05:17:22.737Z,2.42
2022-11-15T05:20:11.000Z,1.90
2022-11-15T05:22:58.146Z,1.80
2022-11-15T05:25:45.517Z,1.90
2022-11-15T05:28:33.438Z,1.98
2022-11-15T05:31:20.251Z,1.92
2022-11-15T05:34:07.833Z,1.50
2022-11-15T05:36:55.387Z,1.90
2022-11-15T05:39:42.397Z,1.90
2022-11-15T05:42:29.908Z,1.60
2022-11-15T05:45:19.324Z,1.42
2022-11-15T05:48:11.420Z,1.10
2022-11-15T05:50:59.333Z,1.40
2022-11-15T05:53:47.363Z,1.40
2022-11-15T05:56:34.427Z,1.50
2022-11-15T05:59:22.037Z,1.30
2022-11-15T06:02:09.380Z,1.60
2022-11-15T06:04:56.195Z,1.55
2022-11-15T06:07:45.956Z,1.40
2022-11-15T06:10:33.227Z,1.20
2022-11-15T06:13:20.106Z,1.38
2022-11-15T06:16:07.559Z,1.38
2022-11-15T06:18:54.917Z,1.20
2022-11-15T06:21:41.937Z,1.10
2022-11-15T06:24:28.769Z,1.13
2022-11-15T06:27:15.748Z,1.20
2022-11-15T06:30:03.187Z,1.10
2022-11-15T06:32:53.105Z,1.10
2022-11-15T06:35:40.001Z,1.15
2022-11-15T06:38:29.857Z,1.15
2022-11-15T06:41:18.756Z,1.20
2022-11-15T06:44:05.780Z,1.30
2022-11-15T06:46:52.640Z,1.30
2022-11-15T06:49:39.976Z,1.30
2022-11-15T06:52:26.796Z,1.33
2022-11-15T06:55:13.853Z,1.30
2022-11-15T06:58:00.636Z,1.27
2022-11-15T07:00:50.520Z,1.50
2022-11-15T07:03:39.814Z,1.33
2022-11-15T07:06:26.695Z,1.38
2022-11-15T07:09:13.899Z,1.40
2022-11-15T07:12:07.334Z,1.10
2022-11-15T07:14:55.167Z,1.23
2022-11-15T07:17:42.043Z,1.10
2022-11-15T07:20:29.088Z,1.23
2022-11-15T07:23:15.730Z,1.17
2022-11-15T07:26:05.384Z,1.05
2022-11-15T07:28:52.331Z,1.40
2022-11-15T07:31:39.756Z,1.30
2022-11-15T07:34:26.996Z,1.35
2022-11-15T07:37:14.870Z,1.20
2022-11-15T07:40:01.405Z,1.30
2022-11-15T07:42:54.431Z,1.40
2022-11-15T07:45:45.903Z,1.20
2022-11-15T07:48:43.412Z,1.48
2022-11-15T07:51:31.998Z,1.50
2022-11-15T07:54:18.797Z,1.58
2022-11-15T07:57:07.704Z,1.45
2022-11-15T07:59:55.197Z,1.20
2022-11-15T08:02:43.927Z,0.98
2022-11-15T08:05:31.245Z,1.17
2022-11-15T08:08:18.309Z,1.00
2022-11-15T08:11:05.908Z,1.00
2022-11-15T08:13:53.396Z,0.95
2022-11-15T08:16:40.388Z,1.00
2022-11-15T08:19:27.670Z,1.20
2022-11-15T08:22:14.799Z,1.15
2022-11-15T08:25:01.861Z,0.95
2022-11-15T08:27:48.911Z,0.88
2022-11-15T08:30:39.473Z,0.90
2022-11-15T08:33:26.800Z,0.98
2022-11-15T08:36:18.750Z,1.02
2022-11-15T08:39:06.759Z,0.90
2022-11-15T08:41:53.944Z,1.02
2022-11-15T08:44:40.872Z,1.15
2022-11-15T08:47:28.499Z,1.30
2022-11-15T08:50:15.397Z,1.20
2022-11-15T08:53:10.316Z,1.10
2022-11-15T08:55:57.481Z,1.25
2022-11-15T08:58:44.677Z,1.30
2022-11-15T09:01:31.874Z,1.10
2022-11-15T09:04:18.924Z,1.20
2022-11-15T09:07:05.974Z,1.17
2022-11-15T09:09:53.068Z,1.40
2022-11-15T09:12:40.098Z,1.20
2022-11-15T09:15:27.355Z,1.10
2022-11-15T09:18:14.486Z,1.40
2022-11-15T09:21:02.211Z,1.90
2022-11-15T09:23:53.693Z,1.70
2022-11-15T09:26:41.349Z,1.60
2022-11-15T09:29:28.566Z,2.20
2022-11-15T09:32:15.850Z,2.70
2022-11-15T09:35:02.946Z,3.20
2022-11-15T09:37:54.996Z,3.75
2022-11-15T09:40:43.546Z,4.22
2022-11-15T09:44:02.948Z,4.15
2022-11-15T09:47:03.251Z,4.95
2022-11-15T09:50:01.865Z,6.85
2022-11-15T09:52:38.559Z,6.03
2022-11-15T09:55:10.736Z,5.20
2022-11-15T09:57:56.237Z,3.78
2022-11-15T10:00:52.728Z,2.90
2022-11-15T10:03:27.399Z,2.60
2022-11-15T10:06:01.156Z,2.83
2022-11-15T10:08:52.578Z,3.97
2022-11-15T10:11:37.429Z,4.63
2022-11-15T10:14:13.598Z,5.85
2022-11-15T10:16:59.449Z,6.03
2022-11-15T10:19:55.557Z,6.03
2022-11-15T10:22:27.338Z,6.57
2022-11-15T10:25:11.128Z,5.85
2022-11-15T10:27:45.053Z,6.25
2022-11-15T10:30:18.886Z,6.90
2022-11-15T10:32:49.057Z,9.95
2022-11-15T10:35:28.119Z,10.23
2022-11-15T10:38:16.364Z,9.15
2022-11-15T10:40:46.659Z,8.80
2022-11-15T10:43:20.813Z,16.20
2022-11-15T10:45:50.472Z,15.30
2022-11-15T10:48:24.572Z,14.27
2022-11-15T10:50:55.731Z,18.13
2022-11-15T10:53:40.271Z,12.98
2022-11-15T10:56:13.803Z,14.40
2022-11-15T10:58:46.025Z,12.43
2022-11-15T11:01:20.936Z,13.73
2022-11-15T11:04:06.593Z,16.73
2022-11-15T11:06:58.428Z,19.65
2022-11-15T11:09:37.463Z,16.25
2022-11-15T11:12:11.860Z,9.95
2022-11-15T11:14:41.714Z,15.73
2022-11-15T11:17:32.807Z,9.90
2022-11-15T11:20:19.175Z,8.98
2022-11-15T11:23:23.502Z,10.50
2022-11-15T11:26:22.591Z,14.25
2022-11-15T11:28:56.565Z,9.38
2022-11-15T11:31:56.892Z,13.02
2022-11-15T11:34:45.154Z,10.63
2022-11-15T11:37:25.557Z,12.18
2022-11-15T11:40:12.855Z,11.15
2022-11-15T11:43:00.973Z,16.85
2022-11-15T11:46:08.123Z,16.15
2022-11-15T11:48:50.443Z,16.50
2022-11-15T11:51:44.297Z,13.80
2022-11-15T11:54:37.563Z,13.00
2022-11-15T11:57:14.642Z,39.72
2022-11-15T11:59:55.439Z,19.35
2022-11-15T12:02:56.403Z,19.23
2022-11-15T12:05:32.652Z,17.35
2022-11-15T12:08:24.409Z,19.98
2022-11-15T12:11:02.699Z,13.30
2022-11-15T12:13:36.390Z,27.38
2022-11-15T12:16:15.019Z,24.85
2022-11-15T12:18:49.051Z,13.80
2022-11-15T12:21:28.673Z,16.13
2022-11-15T12:24:13.595Z,17.80
2022-11-15T12:27:08.131Z,12.43
2022-11-15T12:29:45.570Z,13.77
2022-11-15T12:32:28.925Z,14.75
2022-11-15T12:34:58.596Z,16.90
2022-11-15T12:37:39.549Z,17.33
2022-11-15T12:40:29.432Z,12.70
2022-11-15T12:43:14.851Z,15.73
2022-11-15T12:45:48.366Z,18.88
2022-11-15T12:48:18.861Z,11.25
2022-11-15T12:50:55.254Z,19.23
2022-11-15T12:53:26.744Z,28.08
2022-11-15T12:56:13.732Z,22.85
2022-11-15T12:58:45.376Z,14.77
2022-11-15T13:01:33.287Z,11.18
2022-11-15T13:04:16.938Z,15.90
2022-11-15T13:06:48.524Z,17.83
2022-11-15T13:09:35.818Z,13.65
2022-11-15T13:12:23.468Z,28.73
2022-11-15T13:14:54.865Z,26.70
2022-11-15T13:17:32.425Z,18.83
2022-11-15T13:20:16.039Z,16.63
2022-11-15T13:23:03.681Z,15.07
2022-11-15T13:25:38.723Z,11.63
2022-11-15T13:28:22.582Z,16.50
2022-11-15T13:30:56.758Z,14.85
2022-11-15T13:33:38.415Z,13.50
2022-11-15T13:36:17.317Z,13.85
2022-11-15T13:38:46.295Z,14.93
2022-11-15T13:41:25.040Z,13.15
2022-11-15T13:43:55.264Z,12.07
2022-11-15T13:46:31.515Z,10.57
2022-11-15T13:49:10.540Z,9.88
2022-11-15T13:51:44.928Z,11.20
2022-11-15T13:54:16.533Z,12.25
2022-11-15T13:56:50.479Z,13.43
2022-11-15T13:59:46.288Z,11.15
2022-11-15T14:02:19.053Z,11.25
2022-11-15T14:04:58.325Z,11.57
2022-11-15T14:07:30.498Z,12.77
2022-11-15T14:09:59.778Z,9.75
2022-11-15T14:12:36.988Z,12.68
2022-11-15T14:15:34.952Z,11.48
2022-11-15T14:18:04.478Z,8.10
2022-11-15T14:20:39.985Z,9.20
2022-11-15T14:23:29.224Z,7.70
2022-11-15T14:26:01.576Z,9.10
2022-11-15T14:28:39.727Z,7.00
2022-11-15T14:31:14.884Z,11.23
2022-11-15T14:33:43.679Z,15.48
2022-11-15T14:36:16.481Z,11.55
2022-11-15T14:38:45.861Z,14.75
2022-11-15T14:41:20.180Z,10.90
2022-11-15T14:43:49.138Z,11.32
2022-11-15T14:46:17.839Z,11.50
2022-11-15T14:48:46.659Z,10.85
2022-11-15T14:51:18.359Z,10.82
2022-11-15T14:57:26.501Z,9.95
2022-11-15T14:59:55.679Z,8.88
2022-11-15T15:03:01.937Z,10.60
2022-11-15T15:05:44.002Z,10.25
2022-11-15T15:08:13.542Z,12.57
2022-11-15T15:10:47.450Z,8.25
2022-11-15T15:13:26.457Z,8.73
2022-11-15T15:15:55.371Z,7.03
2022-11-15T15:18:24.504Z,8.23
2022-11-15T15:21:04.320Z,6.68
2022-11-15T15:23:33.242Z,7.38
2022-11-15T15:26:02.054Z,8.93
2022-11-15T15:28:34.773Z,9.63
2022-11-15T15:31:04.344Z,9.73
2022-11-15T15:33:33.769Z,8.85
2022-11-15T15:36:02.577Z,7.90
2022-11-15T15:38:31.734Z,7.15
2022-11-15T15:41:03.649Z,14.02
2022-11-15T15:43:32.513Z,12.43
2022-11-15T15:46:01.353Z,11.88
2022-11-15T15:48:30.672Z,9.68
2022-11-15T15:51:00.001Z,19.50
2022-11-15T15:53:29.039Z,10.40
2022-11-15T15:56:00.939Z,14.52
2022-11-15T15:58:29.841Z,10.27
2022-11-15T16:00:58.660Z,7.95
2022-11-15T16:03:29.232Z,10.32
2022-11-15T16:05:57.879Z,6.70
2022-11-15T16:08:37.909Z,6.78
2022-11-15T16:11:16.604Z,11.60
2022-11-15T16:13:45.301Z,7.95
2022-11-15T16:16:15.539Z,12.02
2022-11-15T16:18:44.259Z,20.65
2022-11-15T16:21:13.652Z,23.67
2022-11-15T16:23:42.298Z,7.07
2022-11-15T16:26:31.815Z,22.73
2022-11-15T16:29:00.340Z,5.70
2022-11-15T16:31:28.957Z,5.22
2022-11-15T16:33:57.697Z,23.77
2022-11-15T16:36:30.818Z,6.43
2022-11-15T16:39:00.617Z,6.32
2022-11-15T16:41:29.059Z,4.68
2022-11-15T16:43:57.941Z,11.25
2022-11-15T16:46:29.471Z,8.15
2022-11-15T16:48:58.313Z,7.60
2022-11-15T16:51:27.041Z,8.13
2022-11-15T16:53:55.794Z,7.78
2022-11-15T16:56:31.937Z,7.93
2022-11-15T16:59:02.574Z,6.20
2022-11-15T17:01:51.220Z,8.88
2022-11-15T17:04:23.407Z,8.15
2022-11-15T17:06:51.974Z,6.68
2022-11-15T17:09:26.541Z,5.88
2022-11-15T17:11:55.445Z,4.32
2022-11-15T17:14:23.959Z,5.85
2022-11-15T17:16:54.302Z,3.75
2022-11-15T17:19:23.227Z,4.45
2022-11-15T17:21:52.589Z,7.93
2022-11-15T17:24:24.272Z,8.38
2022-11-15T17:26:53.318Z,4.22
2022-11-15T17:29:22.146Z,3.63
2022-11-15T17:31:51.176Z,2.85
2022-11-15T17:34:19.918Z,3.67
2022-11-15T17:36:49.388Z,5.28
2022-11-15T17:39:20.330Z,4.13
2022-11-15T17:41:48.920Z,4.18
2022-11-15T17:44:17.605Z,5.47
2022-11-15T17:46:46.414Z,4.43
2022-11-15T17:49:15.069Z,4.07
2022-11-15T17:51:48.731Z,5.05
2022-11-15T17:56:46.708Z,6.80
2022-11-15T17:59:20.166Z,4.05
2022-11-15T18:01:50.151Z,4.82
2022-11-15T18:04:18.786Z,5.18
2022-11-15T18:06:47.925Z,4.50
2022-11-15T18:09:16.406Z,4.65
2022-11-15T18:11:47.295Z,4.50
2022-11-15T18:14:16.729Z,4.68
2022-11-15T18:16:45.397Z,5.57
2022-11-15T18:19:14.520Z,4.55
2022-11-15T18:21:57.417Z,4.35
2022-11-15T18:24:35.551Z,9.10
2022-11-15T18:27:06.692Z,4.82
2022-11-15T18:29:38.354Z,5.78
2022-11-15T18:32:12.882Z,8.85
2022-11-15T18:34:41.737Z,3.63
2022-11-15T18:37:10.657Z,4.72
2022-11-15T18:39:39.298Z,4.90
2022-11-15T18:42:07.986Z,4.60
2022-11-15T18:44:36.634Z,9.30
2022-11-15T18:47:05.310Z,10.75
2022-11-15T18:49:34.168Z,5.75
2022-11-15T18:52:02.904Z,9.50
2022-11-15T18:54:32.015Z,4.43
2022-11-15T18:57:00.799Z,7.07
2022-11-15T18:59:30.579Z,3.90
2022-11-15T19:01:59.424Z,7.10
2022-11-15T19:04:28.422Z,6.50
2022-11-15T19:06:56.886Z,8.48
2022-11-15T19:09:32.644Z,4.95
2022-11-15T19:12:01.911Z,4.72
2022-11-15T19:14:30.850Z,5.60
2022-11-15T19:16:59.350Z,8.45
2022-11-15T19:19:29.252Z,7.63
2022-11-15T19:21:58.381Z,6.68
2022-11-15T19:24:28.043Z,7.95
2022-11-15T19:26:56.983Z,17.63
2022-11-15T19:29:25.458Z,27.52
2022-11-15T19:31:54.204Z,15.30
2022-11-15T19:34:22.888Z,13.20
2022-11-15T19:36:52.027Z,9.80
2022-11-15T19:39:20.716Z,8.73
2022-11-15T19:41:50.611Z,6.03
2022-11-15T19:44:20.108Z,6.55
2022-11-15T19:46:48.585Z,6.18
2022-11-15T19:49:17.285Z,5.75
2022-11-15T19:51:47.783Z,5.47
2022-11-15T19:54:17.894Z,10.73
2022-11-15T19:56:46.662Z,9.63
2022-11-15T19:59:15.949Z,11.00
2022-11-15T20:01:44.607Z,11.23
2022-11-15T20:04:13.327Z,10.82
2022-11-15T20:06:43.737Z,9.15
2022-11-15T20:09:14.549Z,9.75
2022-11-15T20:11:43.255Z,8.80
2022-11-15T20:14:13.615Z,15.40
2022-11-15T20:16:42.481Z,14.32
2022-11-15T20:19:12.938Z,9.40
2022-11-15T20:21:41.475Z,8.80
2022-11-15T20:24:10.888Z,10.25
2022-11-15T20:26:40.084Z,9.27
2022-11-15T20:29:10.670Z,5.80
2022-11-15T20:31:39.393Z,4.50
2022-11-15T20:34:07.976Z,4.50
2022-11-15T20:36:36.549Z,4.30
2022-11-15T20:39:05.050Z,5.45
2022-11-15T20:41:33.889Z,5.47
2022-11-15T20:44:03.583Z,4.10
2022-11-15T20:46:35.212Z,4.00
2022-11-15T20:49:03.711Z,3.90
2022-11-15T20:51:32.253Z,4.93
2022-11-15T20:54:00.741Z,10.18
2022-11-15T20:56:29.356Z,18.27
2022-11-15T20:58:57.827Z,22.50
2022-11-15T21:01:26.765Z,23.45
2022-11-15T21:03:56.595Z,18.30
2022-11-15T21:06:27.150Z,20.15
2022-11-15T21:09:15.227Z,11.15
2022-11-15T21:12:02.066Z,6.32
2022-11-15T21:14:31.011Z,6.22
2022-11-15T21:17:00.300Z,4.13
2022-11-15T21:19:34.039Z,4.13
2022-11-15T21:22:06.390Z,3.55
2022-11-15T21:24:34.931Z,4.05
2022-11-15T21:27:03.647Z,11.38
2022-11-15T21:29:38.739Z,14.32
2022-11-15T21:32:09.842Z,13.32
2022-11-15T21:34:38.901Z,12.77
2022-11-15T21:37:08.173Z,14.18
2022-11-15T21:39:36.784Z,15.82
2022-11-15T21:42:06.312Z,5.20
2022-11-15T21:44:34.723Z,3.60
2022-11-15T21:47:03.469Z,3.67
2022-11-15T21:49:32.151Z,4.40
2022-11-15T21:52:00.638Z,4.35
2022-11-15T21:54:29.268Z,5.70
2022-11-15T21:56:57.722Z,25.08
2022-11-15T21:59:26.360Z,5.75
2022-11-15T22:02:13.070Z,10.23
2022-11-15T22:04:41.609Z,9.20
2022-11-15T22:07:10.097Z,4.93
2022-11-15T22:09:38.949Z,23.80
2022-11-15T22:12:07.631Z,9.40
2022-11-15T22:14:36.361Z,11.20
2022-11-15T22:17:04.979Z,9.88
2022-11-15T22:19:33.763Z,7.30
2022-11-15T22:22:02.289Z,4.88
2022-11-15T22:24:31.540Z,8.68
2022-11-15T22:27:00.612Z,7.47
2022-11-15T22:29:29.295Z,8.27
2022-11-15T22:31:57.985Z,13.55
2022-11-15T22:34:26.482Z,8.13
2022-11-15T22:37:21.415Z,8.80
2022-11-15T22:39:44.177Z,9.60
2022-11-15T22:42:13.898Z,8.95
2022-11-15T22:44:42.732Z,6.60
2022-11-15T22:47:11.490Z,7.63
2022-11-15T22:49:40.296Z,10.80
2022-11-15T22:52:09.758Z,8.55
2022-11-15T22:54:38.909Z,13.30
2022-11-15T22:57:07.596Z,9.73
2022-11-15T22:59:38.118Z,9.85
2022-11-15T23:02:06.920Z,9.13
2022-11-15T23:04:35.510Z,16.55
2022-11-15T23:07:04.419Z,10.48
2022-11-15T23:09:36.006Z,10.48
2022-11-15T23:12:23.698Z,6.45
2022-11-15T23:14:52.378Z,6.63
2022-11-15T23:17:21.127Z,4.20
2022-11-15T23:19:50.021Z,4.88
2022-11-15T23:22:37.189Z,4.28
2022-11-15T23:25:06.417Z,5.03
2022-11-15T23:27:35.258Z,8.93
2022-11-15T23:30:22.430Z,6.10
2022-11-15T23:33:09.154Z,6.25
2022-11-15T23:35:38.141Z,5.95
2022-11-15T23:38:06.859Z,5.70
2022-11-15T23:40:35.766Z,6.50
2022-11-15T23:43:04.460Z,5.90
2022-11-15T23:45:33.341Z,5.97
2022-11-15T23:48:02.221Z,7.28
2022-11-15T23:50:33.274Z,7.70
2022-11-15T23:53:02.459Z,6.60
2022-11-15T23:55:31.450Z,7.38
2022-11-15T23:58:00.376Z,6.95
